Eagle (EGE/KEGE)

Map

Destinations

Information

Location
Eagle, CO
Local Time
04:36 / 4:36 am
GMT Time
10:36 / 10:36 am
Gates
Unassigned
No FAA reported delays
METAR KEGE 210956Z AUTO 10004KT 10SM CLR 14/10 A3029 RMK AO2 SLP188 T01390100
TAF KEGE 210539Z 2106/2206 VRB03KT P6SM BKN100 FM211100 VRB03KT P6SM SCT080 FM211600 VRB03KT P6SM VCSH BKN150 FM211800 26005KT P6SM VCTS SCT080CB BKN110 FM212100 29009KT P6SM VCTS OVC100CB FM220000 30008KT P6SM OVC080 AMD LTD TO CLD VIS AND WIND TIL 211300